createdAt,value
2019-04-03T00:01:08.103Z,60.10
2019-04-03T00:03:35.936Z,60.39
2019-04-03T00:06:05.490Z,60.86
2019-04-03T00:08:34.753Z,61.17
2019-04-03T00:11:03.458Z,61.47
2019-04-03T00:13:31.203Z,61.62
2019-04-03T00:15:58.983Z,61.30
2019-04-03T00:18:26.747Z,61.64
2019-04-03T00:20:54.514Z,61.31
2019-04-03T00:23:22.872Z,60.96
2019-04-03T00:25:52.426Z,60.88
2019-04-03T00:28:20.698Z,60.88
2019-04-03T00:30:52.418Z,61.02
2019-04-03T00:33:19.575Z,61.29
2019-04-03T00:35:47.298Z,61.48
2019-04-03T00:38:15.087Z,61.94
2019-04-03T00:40:42.802Z,61.88
2019-04-03T00:43:10.551Z,61.81
2019-04-03T00:45:38.359Z,61.80
2019-04-03T00:48:06.112Z,61.67
2019-04-03T00:50:33.835Z,61.57
2019-04-03T00:53:01.565Z,61.49
2019-04-03T00:55:29.356Z,61.23
2019-04-03T00:57:57.155Z,61.43
2019-04-03T01:00:26.402Z,61.55
2019-04-03T01:02:54.621Z,61.52
2019-04-03T01:05:22.328Z,61.46
2019-04-03T01:07:50.084Z,61.59
2019-04-03T01:10:17.792Z,61.47
2019-04-03T01:12:45.578Z,61.47
2019-04-03T01:15:13.328Z,61.71
2019-04-03T01:17:41.120Z,61.38
2019-04-03T01:20:09.148Z,61.39
2019-04-03T01:22:37.270Z,61.56
2019-04-03T01:25:08.282Z,62.16
2019-04-03T01:27:35.351Z,62.55
2019-04-03T01:30:04.015Z,62.46
2019-04-03T01:32:31.781Z,62.44
2019-04-03T01:34:59.492Z,63.02
2019-04-03T01:37:27.231Z,63.18
2019-04-03T01:39:54.897Z,62.95
2019-04-03T01:42:22.880Z,62.99
2019-04-03T01:44:50.609Z,63.28
2019-04-03T01:47:18.380Z,63.91
2019-04-03T01:49:46.190Z,64.08
2019-04-03T01:52:13.924Z,63.82
2019-04-03T01:54:41.750Z,63.74
2019-04-03T01:57:09.513Z,63.70
2019-04-03T01:59:37.941Z,63.87
2019-04-03T02:02:06.704Z,64.01
2019-04-03T02:04:35.552Z,64.50
2019-04-03T02:07:03.292Z,64.66
2019-04-03T02:09:31.150Z,64.56
2019-04-03T02:11:59.063Z,64.59
2019-04-03T02:14:26.810Z,65.99
2019-04-03T02:16:54.668Z,65.98
2019-04-03T02:19:22.624Z,66.35
2019-04-03T02:21:51.781Z,66.89
2019-04-03T02:24:19.516Z,66.48
2019-04-03T02:26:47.209Z,66.34
2019-04-03T02:29:14.940Z,66.81
2019-04-03T02:31:43.187Z,66.78
2019-04-03T02:34:11.113Z,66.62
2019-04-03T02:36:39.176Z,66.55
2019-04-03T02:39:07.337Z,65.95
2019-04-03T02:41:37.974Z,66.04
2019-04-03T02:44:05.887Z,66.87
2019-04-03T02:46:33.550Z,66.82
2019-04-03T02:49:01.441Z,66.92
2019-04-03T02:51:29.421Z,67.42
2019-04-03T02:53:57.140Z,67.13
2019-04-03T02:56:24.968Z,66.82
2019-04-03T02:58:53.907Z,67.71
2019-04-03T03:01:22.436Z,67.85
2019-04-03T03:03:50.674Z,67.97
2019-04-03T03:06:18.669Z,68.29
2019-04-03T03:08:46.747Z,68.12
2019-04-03T03:11:14.710Z,68.04
2019-04-03T03:13:44.294Z,68.05
2019-04-03T03:16:14.170Z,68.66
2019-04-03T03:18:42.074Z,68.54
2019-04-03T03:21:12.753Z,68.41
2019-04-03T03:23:41.515Z,67.87
2019-04-03T03:26:09.877Z,68.10
2019-04-03T03:28:38.019Z,68.42
2019-04-03T03:31:07.828Z,68.60
2019-04-03T03:33:39.572Z,69.01
2019-04-03T03:36:07.042Z,70.27
2019-04-03T03:38:38.225Z,70.49
2019-04-03T03:41:05.049Z,70.43
2019-04-03T03:43:37.111Z,70.55
2019-04-03T03:46:03.239Z,71.96
2019-04-03T03:48:31.800Z,72.23
2019-04-03T03:51:02.288Z,71.66
2019-04-03T03:53:31.896Z,71.14
2019-04-03T03:56:01.372Z,71.16
2019-04-03T03:58:29.621Z,71.33
2019-04-03T04:00:59.772Z,71.81
2019-04-03T04:03:27.647Z,72.22
2019-04-03T04:05:56.727Z,72.19
2019-04-03T04:08:25.158Z,72.09
2019-04-03T04:10:58.130Z,71.92
2019-04-03T04:13:23.310Z,72.78
2019-04-03T04:15:51.460Z,72.84
2019-04-03T04:18:22.923Z,73.34
2019-04-03T04:20:49.243Z,73.19
2019-04-03T04:23:17.091Z,72.81
2019-04-03T04:25:45.336Z,72.20
2019-04-03T04:28:13.259Z,71.93
2019-04-03T04:30:44.909Z,71.50
2019-04-03T04:33:12.669Z,71.29
2019-04-03T04:35:40.408Z,71.09
2019-04-03T04:38:08.177Z,71.32
2019-04-03T04:40:35.923Z,72.53
2019-04-03T04:43:04.384Z,72.59
2019-04-03T04:45:33.883Z,72.53
2019-04-03T04:48:01.782Z,72.54
2019-04-03T04:50:29.629Z,72.56
2019-04-03T04:52:58.794Z,72.41
2019-04-03T04:55:27.022Z,72.27
2019-04-03T04:57:54.812Z,72.40
2019-04-03T05:00:22.542Z,72.14
2019-04-03T05:02:51.148Z,71.93
2019-04-03T05:05:19.600Z,72.14
2019-04-03T05:07:47.500Z,72.37
2019-04-03T05:10:17.582Z,72.11
2019-04-03T05:12:45.685Z,72.25
2019-04-03T05:15:13.735Z,72.19
2019-04-03T05:17:41.680Z,71.96
2019-04-03T05:20:14.705Z,71.55
2019-04-03T05:22:42.472Z,71.26
2019-04-03T05:25:10.392Z,71.08
2019-04-03T05:27:38.115Z,70.63
2019-04-03T05:30:06.566Z,70.43
2019-04-03T05:32:34.498Z,70.02
2019-04-03T05:35:02.245Z,69.69
2019-04-03T05:37:30.298Z,69.22
2019-04-03T05:39:58.045Z,69.36
2019-04-03T05:42:26.950Z,69.44
2019-04-03T05:44:55.495Z,68.92
2019-04-03T05:47:24.645Z,67.97
2019-04-03T05:49:55.558Z,67.15
2019-04-03T05:52:22.223Z,67.28
2019-04-03T05:54:50.054Z,67.66
2019-04-03T05:57:17.835Z,67.66
2019-04-03T05:59:58.208Z,67.20
2019-04-03T06:02:19.802Z,66.87
2019-04-03T06:04:44.945Z,66.69
2019-04-03T06:07:12.929Z,67.18
2019-04-03T06:09:40.743Z,66.31
2019-04-03T06:12:09.467Z,65.13
2019-04-03T06:14:38.565Z,64.74
2019-04-03T06:17:06.551Z,64.29
2019-04-03T06:19:39.179Z,64.11
2019-04-03T06:22:06.068Z,63.48
2019-04-03T06:24:33.906Z,63.55
2019-04-03T06:27:01.685Z,63.03
2019-04-03T06:29:29.442Z,62.71
2019-04-03T06:31:57.885Z,63.39
2019-04-03T06:34:26.118Z,63.02
2019-04-03T06:36:53.828Z,62.80
2019-04-03T06:39:22.890Z,61.04
2019-04-03T06:41:51.262Z,61.52
2019-04-03T06:44:22.040Z,60.10
2019-04-03T06:46:48.738Z,59.66
2019-04-03T06:49:17.126Z,59.73
2019-04-03T06:51:44.993Z,59.01
2019-04-03T06:54:12.744Z,59.23
2019-04-03T06:56:41.260Z,58.69
2019-04-03T06:59:09.412Z,58.76
2019-04-03T07:01:37.320Z,57.48
2019-04-03T07:04:06.410Z,57.17
2019-04-03T07:06:34.716Z,57.20
2019-04-03T07:09:05.458Z,56.26
2019-04-03T07:11:33.246Z,55.02
2019-04-03T07:14:00.974Z,55.31
2019-04-03T07:16:29.196Z,56.10
2019-04-03T07:18:57.205Z,55.19
2019-04-03T07:21:27.477Z,54.68
2019-04-03T07:23:54.505Z,53.75
2019-04-03T07:26:22.272Z,53.35
2019-04-03T07:28:50.048Z,53.43
2019-04-03T07:31:18.032Z,52.39
2019-04-03T07:33:45.816Z,51.68
2019-04-03T07:36:13.822Z,50.75
2019-04-03T07:38:41.597Z,50.46
2019-04-03T07:41:09.463Z,50.06
2019-04-03T07:43:37.434Z,49.74
2019-04-03T07:46:05.337Z,48.16
2019-04-03T07:48:33.665Z,47.47
2019-04-03T07:51:01.978Z,47.63
2019-04-03T07:53:29.847Z,47.99
2019-04-03T07:55:57.678Z,47.92
2019-04-03T07:58:25.835Z,46.57
2019-04-03T08:00:53.705Z,45.43
2019-04-03T08:03:21.664Z,44.92
2019-04-03T08:05:49.560Z,44.83
2019-04-03T08:08:17.427Z,44.41
2019-04-03T08:10:49.389Z,44.65
2019-04-03T08:13:19.437Z,45.59
2019-04-03T08:15:47.067Z,44.27
2019-04-03T08:18:14.859Z,42.83
2019-04-03T08:20:42.827Z,40.78
2019-04-03T08:23:10.659Z,42.36
2019-04-03T08:25:38.480Z,41.51
2019-04-03T08:28:06.535Z,41.35
2019-04-03T08:30:34.612Z,40.34
2019-04-03T08:33:14.887Z,39.85
2019-04-03T08:35:32.806Z,38.98
2019-04-03T08:38:02.060Z,39.12
2019-04-03T08:40:29.986Z,41.08
2019-04-03T08:43:00.654Z,40.38
2019-04-03T08:45:27.671Z,39.11
2019-04-03T08:47:55.507Z,38.19
2019-04-03T08:50:28.351Z,37.43
2019-04-03T08:52:56.694Z,37.66
2019-04-03T08:55:27.472Z,37.37
2019-04-03T08:57:55.351Z,37.86
2019-04-03T09:00:23.359Z,37.08
2019-04-03T09:02:51.304Z,37.55
2019-04-03T09:05:20.097Z,36.65
2019-04-03T09:07:55.279Z,36.30
2019-04-03T09:10:18.302Z,35.53
2019-04-03T09:12:46.112Z,34.50
2019-04-03T09:15:14.150Z,34.10
2019-04-03T09:17:41.999Z,33.01
2019-04-03T09:20:12.538Z,31.22
2019-04-03T09:22:40.087Z,30.79
2019-04-03T09:25:08.669Z,30.31
2019-04-03T09:27:40.597Z,30.48
2019-04-03T09:30:11.938Z,31.29
2019-04-03T09:32:39.936Z,31.84
2019-04-03T09:35:08.403Z,32.39
2019-04-03T09:37:38.032Z,32.98
2019-04-03T09:40:06.414Z,33.69
2019-04-03T09:42:34.250Z,34.45
2019-04-03T09:45:02.213Z,33.93
2019-04-03T09:47:31.696Z,33.15
2019-04-03T09:49:59.885Z,32.30
2019-04-03T09:52:38.372Z,31.23
2019-04-03T09:54:59.756Z,30.34
2019-04-03T09:57:30.164Z,30.00
2019-04-03T09:59:56.982Z,29.30
2019-04-03T10:02:24.902Z,30.02
2019-04-03T10:04:52.640Z,29.06
2019-04-03T10:07:20.748Z,28.80
2019-04-03T10:09:48.637Z,27.98
2019-04-03T10:12:16.868Z,27.61
2019-04-03T10:14:44.983Z,27.51
2019-04-03T10:17:12.784Z,28.13
2019-04-03T10:19:40.709Z,29.36
2019-04-03T10:22:08.673Z,30.36
2019-04-03T10:24:36.533Z,30.84
2019-04-03T10:27:04.914Z,31.37
2019-04-03T10:29:32.781Z,31.42
2019-04-03T10:32:08.498Z,29.60
2019-04-03T10:34:57.150Z,26.79
2019-04-03T10:37:27.229Z,24.76
2019-04-03T10:39:55.041Z,24.61
2019-04-03T10:42:23.053Z,23.42
2019-04-03T10:44:54.492Z,22.68
2019-04-03T10:47:25.317Z,23.86
2019-04-03T10:49:52.630Z,25.37
2019-04-03T10:52:39.164Z,26.76
2019-04-03T10:55:08.027Z,24.77
2019-04-03T11:10:33.117Z,27.22
2019-04-03T11:13:03.576Z,28.03
2019-04-03T11:15:36.124Z,28.39
2019-04-03T11:21:57.771Z,28.16
2019-04-03T11:24:25.628Z,27.80
2019-04-03T11:26:53.572Z,28.89
2019-04-03T11:29:21.390Z,29.34
2019-04-03T11:31:49.211Z,30.46
2019-04-03T11:34:18.432Z,31.34
2019-04-03T11:36:47.198Z,32.07
2019-04-03T11:39:16.250Z,33.02
2019-04-03T11:41:44.636Z,33.69
2019-04-03T11:44:12.840Z,34.01
2019-04-03T11:46:40.625Z,34.19
2019-04-03T11:49:08.936Z,34.37
2019-04-03T11:51:36.800Z,35.42
2019-04-03T11:54:06.872Z,35.96
2019-04-03T11:56:34.765Z,36.73
2019-04-03T11:59:02.793Z,37.84
2019-04-03T12:01:30.910Z,38.39
2019-04-03T12:03:58.729Z,38.46
2019-04-03T12:06:26.658Z,38.64
2019-04-03T12:08:54.597Z,36.99
2019-04-03T12:11:22.699Z,34.45
2019-04-03T12:13:50.723Z,30.32
2019-04-03T12:16:19.716Z,25.43
2019-04-03T12:18:48.626Z,22.22
2019-04-03T12:21:20.348Z,19.99
2019-04-03T12:23:49.651Z,19.14
2019-04-03T12:26:21.278Z,17.06
2019-04-03T12:28:50.546Z,16.35
2019-04-03T12:31:19.206Z,14.56
2019-04-03T12:33:54.805Z,15.30
2019-04-03T12:36:17.184Z,18.53
2019-04-03T12:38:44.970Z,19.97
2019-04-03T12:41:12.762Z,20.66
2019-04-03T12:43:40.813Z,21.38
2019-04-03T12:46:08.908Z,22.07
2019-04-03T12:48:36.704Z,21.84
2019-04-03T12:51:04.613Z,20.40
2019-04-03T12:53:37.856Z,19.14
2019-04-03T12:56:05.722Z,20.44
2019-04-03T12:58:34.056Z,19.32
2019-04-03T13:01:03.521Z,16.78
2019-04-03T13:03:31.386Z,15.66
2019-04-03T13:05:59.617Z,14.58
2019-04-03T13:08:27.586Z,13.66
2019-04-03T13:10:55.466Z,14.59
2019-04-03T13:13:25.242Z,16.31
2019-04-03T13:15:53.163Z,17.25
2019-04-03T13:18:21.714Z,15.69
2019-04-03T13:20:49.984Z,14.64
2019-04-03T13:23:57.600Z,13.83
2019-04-03T13:26:25.988Z,13.48
2019-04-03T13:28:54.456Z,13.18
2019-04-03T13:31:22.351Z,13.31
2019-04-03T13:33:50.153Z,13.50
2019-04-03T13:36:18.690Z,13.95
2019-04-03T13:38:50.422Z,13.57
2019-04-03T13:41:17.814Z,13.68
2019-04-03T13:43:45.910Z,13.49
2019-04-03T13:46:13.752Z,13.58
2019-04-03T13:48:48.619Z,14.31
2019-04-03T13:51:16.690Z,14.56
2019-04-03T13:53:44.513Z,14.34
2019-04-03T13:56:12.827Z,14.72
2019-04-03T13:58:40.706Z,16.58
2019-04-03T14:01:09.535Z,16.70
2019-04-03T14:03:37.938Z,16.88
2019-04-03T14:06:06.004Z,17.02
2019-04-03T14:08:34.175Z,16.72
2019-04-03T14:11:02.028Z,16.80
2019-04-03T14:13:29.851Z,17.08
2019-04-03T14:15:57.950Z,17.20
2019-04-03T14:18:26.162Z,17.49
2019-04-03T14:20:56.085Z,17.50
2019-04-03T14:23:23.711Z,17.02
2019-04-03T14:26:03.132Z,17.47
2019-04-03T14:28:21.860Z,17.76
2019-04-03T14:30:49.711Z,17.65
2019-04-03T14:33:19.192Z,18.33
2019-04-03T14:35:52.583Z,20.00
2019-04-03T14:38:17.035Z,20.34
2019-04-03T14:40:45.070Z,21.26
2019-04-03T14:43:13.078Z,22.82
2019-04-03T14:45:40.943Z,23.96
2019-04-03T14:48:09.233Z,25.50
2019-04-03T14:50:38.298Z,26.40
2019-04-03T14:53:07.275Z,28.92
2019-04-03T14:55:45.847Z,30.58
2019-04-03T14:58:04.912Z,32.06
2019-04-03T15:00:35.894Z,33.75
2019-04-03T15:03:04.654Z,34.83
2019-04-03T15:05:33.038Z,35.55
2019-04-03T15:08:00.909Z,36.04
2019-04-03T15:10:30.753Z,36.58
2019-04-03T15:12:58.895Z,37.05
2019-04-03T15:15:27.585Z,37.45
2019-04-03T15:18:12.022Z,37.74
2019-04-03T15:20:49.383Z,39.00
2019-04-03T15:23:17.945Z,39.64
2019-04-03T15:26:53.023Z,40.34
2019-04-03T15:29:21.626Z,40.82
2019-04-03T15:40:39.810Z,41.96
2019-04-03T15:43:20.065Z,41.99
2019-04-03T15:50:21.921Z,41.34
2019-04-03T15:53:00.461Z,41.09
2019-04-03T15:59:46.067Z,41.56
2019-04-03T16:02:14.071Z,41.82
2019-04-03T16:04:41.967Z,42.30
2019-04-03T16:07:13.388Z,42.19
2019-04-03T16:10:01.011Z,42.15
2019-04-03T16:12:29.226Z,42.57
2019-04-03T16:14:57.473Z,43.36
2019-04-03T16:17:25.764Z,43.05
2019-04-03T16:19:53.611Z,43.28
2019-04-03T16:22:21.583Z,43.25
2019-04-03T16:24:49.580Z,43.24
2019-04-03T16:27:17.421Z,43.49
2019-04-03T16:29:45.892Z,43.26
2019-04-03T16:32:14.020Z,43.59
2019-04-03T16:34:42.733Z,44.06
2019-04-03T16:37:10.897Z,44.04
2019-04-03T16:39:39.116Z,43.88
2019-04-03T16:42:07.277Z,43.32
2019-04-03T16:44:35.544Z,43.34
2019-04-03T16:49:48.601Z,43.62
2019-04-03T16:52:16.456Z,43.96
2019-04-03T16:54:45.392Z,43.96
2019-04-03T16:57:13.768Z,44.25
2019-04-03T16:59:44.304Z,43.78
2019-04-03T17:02:13.671Z,44.37
2019-04-03T17:04:41.488Z,44.54
2019-04-03T17:07:09.800Z,44.77
2019-04-03T17:09:39.397Z,44.77
2019-04-03T17:12:07.279Z,46.17
2019-04-03T17:14:35.392Z,46.71
2019-04-03T17:17:03.595Z,47.63
2019-04-03T17:19:31.899Z,47.88
2019-04-03T17:21:59.704Z,48.44
2019-04-03T17:24:40.231Z,49.28
2019-04-03T17:26:59.477Z,49.66
2019-04-03T17:29:27.792Z,50.26
2019-04-03T17:31:58.302Z,50.45
2019-04-03T17:34:25.475Z,50.52
2019-04-03T17:36:54.086Z,50.55
2019-04-03T17:39:22.291Z,50.88
2019-04-03T17:41:50.110Z,51.16
2019-04-03T17:44:20.025Z,51.40
2019-04-03T17:46:49.353Z,51.46
2019-04-03T17:49:17.292Z,52.18
2019-04-03T17:51:45.057Z,52.70
2019-04-03T17:54:13.956Z,53.14
2019-04-03T17:56:42.967Z,53.25
2019-04-03T17:59:11.599Z,53.70
2019-04-03T18:01:39.437Z,53.82
2019-04-03T18:04:07.209Z,53.94
2019-04-03T18:06:34.986Z,54.19
2019-04-03T18:09:06.777Z,54.99
2019-04-03T18:11:34.574Z,55.34
2019-04-03T18:14:03.527Z,55.41
2019-04-03T18:16:31.313Z,55.11
2019-04-03T18:18:59.086Z,55.31
2019-04-03T18:21:26.840Z,55.31
2019-04-03T18:23:54.644Z,55.45
2019-04-03T18:26:22.432Z,55.83
2019-04-03T18:28:51.291Z,55.89
2019-04-03T18:31:19.013Z,55.46
2019-04-03T18:33:48.645Z,55.57
2019-04-03T18:36:16.515Z,55.77
2019-04-03T18:38:44.282Z,56.07
2019-04-03T18:41:12.069Z,55.53
2019-04-03T18:43:39.832Z,55.08
2019-04-03T18:46:07.933Z,54.79
2019-04-03T18:48:35.719Z,55.22
2019-04-03T18:51:05.653Z,55.17
2019-04-03T18:53:33.324Z,55.22
2019-04-03T18:56:02.192Z,55.21
2019-04-03T18:58:30.007Z,55.08
2019-04-03T19:00:57.773Z,55.22
2019-04-03T19:03:26.351Z,55.18
2019-04-03T19:05:54.162Z,55.49
2019-04-03T19:08:22.009Z,55.54
2019-04-03T19:11:01.347Z,55.50
2019-04-03T19:13:19.444Z,55.39
2019-04-03T19:15:47.234Z,55.61
2019-04-03T19:18:19.803Z,55.44
2019-04-03T19:20:44.700Z,55.41
2019-04-03T19:23:12.447Z,55.32
2019-04-03T19:25:40.241Z,55.55
2019-04-03T19:28:07.996Z,55.79
2019-04-03T19:30:36.130Z,56.04
2019-04-03T19:33:05.421Z,55.88
2019-04-03T19:35:33.179Z,55.94
2019-04-03T19:38:00.982Z,55.97
2019-04-03T19:40:28.752Z,55.77
2019-04-03T19:42:56.585Z,55.90
2019-04-03T19:45:24.377Z,55.94
2019-04-03T19:47:54.519Z,55.85
2019-04-03T19:50:21.860Z,55.45
2019-04-03T19:52:52.688Z,55.45
2019-04-03T19:55:23.232Z,55.43
2019-04-03T19:57:50.196Z,55.79
2019-04-03T20:00:19.408Z,55.43
2019-04-03T20:02:47.188Z,55.55
2019-04-03T20:05:14.970Z,55.63
2019-04-03T20:07:42.746Z,55.84
2019-04-03T20:10:10.763Z,55.94
2019-04-03T20:12:38.576Z,56.00
2019-04-03T20:15:08.044Z,55.80
2019-04-03T20:17:35.800Z,55.55
2019-04-03T20:20:03.903Z,55.03
2019-04-03T20:22:31.718Z,54.77
2019-04-03T20:25:00.587Z,54.33
2019-04-03T20:27:28.821Z,54.03
2019-04-03T20:29:56.682Z,53.83
2019-04-03T20:32:24.454Z,53.62
2019-04-03T20:34:52.212Z,53.74
2019-04-03T20:37:20.104Z,53.57
2019-04-03T20:39:48.179Z,53.42
2019-04-03T20:42:15.987Z,53.53
2019-04-03T20:44:43.744Z,53.89
2019-04-03T20:47:11.515Z,53.98
2019-04-03T20:49:39.289Z,53.87
2019-04-03T20:52:07.026Z,53.94
2019-04-03T20:54:34.789Z,54.18
2019-04-03T20:57:03.191Z,54.06
2019-04-03T20:59:32.953Z,54.20
2019-04-03T21:02:00.753Z,54.21
2019-04-03T21:04:29.845Z,54.11
2019-04-03T21:06:57.634Z,54.37
2019-04-03T21:09:25.396Z,54.29
2019-04-03T21:11:53.213Z,54.40
2019-04-03T21:14:21.771Z,54.42
2019-04-03T21:16:49.515Z,54.51
2019-04-03T21:19:21.233Z,54.54
2019-04-03T21:21:48.035Z,54.61
2019-04-03T21:24:18.038Z,54.58
2019-04-03T21:26:45.805Z,54.35
2019-04-03T21:29:16.658Z,54.25
2019-04-03T21:31:43.995Z,54.60
2019-04-03T21:34:11.726Z,54.83
2019-04-03T21:36:40.004Z,54.99
2019-04-03T21:39:07.783Z,54.93
2019-04-03T21:41:35.567Z,55.07
2019-04-03T21:44:04.119Z,55.20
2019-04-03T21:46:31.859Z,55.09
2019-04-03T21:48:59.839Z,55.27
2019-04-03T21:51:28.927Z,55.43
2019-04-03T21:53:56.785Z,55.94
2019-04-03T21:56:24.766Z,56.01
2019-04-03T21:58:52.764Z,56.06
2019-04-03T22:01:24.005Z,56.15
2019-04-03T22:03:52.038Z,56.31
2019-04-03T22:06:19.946Z,56.42
2019-04-03T22:08:48.035Z,56.37
2019-04-03T22:11:17.607Z,56.48
2019-04-03T22:13:45.403Z,56.89
2019-04-03T22:16:13.140Z,56.66
2019-04-03T22:18:41.107Z,56.72
2019-04-03T22:21:08.866Z,56.97
2019-04-03T22:23:36.936Z,56.90
2019-04-03T22:26:06.253Z,56.91
2019-04-03T22:28:36.691Z,57.30
2019-04-03T22:31:04.436Z,57.02
2019-04-03T22:33:33.006Z,57.02
2019-04-03T22:36:03.298Z,57.18
2019-04-03T22:38:31.720Z,57.53
2019-04-03T22:40:59.492Z,57.59
2019-04-03T22:43:27.242Z,57.41
2019-04-03T22:45:55.202Z,57.61
2019-04-03T22:48:23.112Z,57.81
2019-04-03T22:50:51.026Z,57.99
2019-04-03T22:53:18.791Z,57.65
2019-04-03T22:55:47.044Z,57.91
2019-04-03T22:58:14.825Z,57.95
2019-04-03T23:00:42.563Z,57.93
2019-04-03T23:03:13.305Z,57.12
2019-04-03T23:05:40.447Z,56.80
2019-04-03T23:08:08.510Z,57.49
2019-04-03T23:10:36.432Z,58.42
2019-04-03T23:13:05.215Z,57.61
2019-04-03T23:15:33.096Z,57.12
2019-04-03T23:18:00.896Z,58.14
2019-04-03T23:20:28.671Z,59.31
2019-04-03T23:22:57.508Z,59.30
2019-04-03T23:25:25.336Z,59.30
2019-04-03T23:27:53.111Z,57.89
2019-04-03T23:30:20.899Z,58.54
2019-04-03T23:32:48.677Z,59.57
2019-04-03T23:35:16.451Z,59.47
2019-04-03T23:37:44.233Z,59.12
2019-04-03T23:40:12.241Z,59.73
2019-04-03T23:42:40.268Z,60.19
2019-04-03T23:45:08.131Z,60.49
2019-04-03T23:47:35.915Z,61.00
2019-04-03T23:50:04.520Z,61.25
2019-04-03T23:52:32.279Z,61.73
2019-04-03T23:55:00.071Z,61.50
2019-04-03T23:57:28.100Z,61.88
2019-04-03T23:59:55.930Z,62.04
